createdAt,value
2023-01-08T00:00:42.901Z,98171.31
2023-01-08T00:02:51.329Z,98168.84
2023-01-08T00:04:53.125Z,98164.47
2023-01-08T00:06:54.816Z,98163.66
2023-01-08T00:08:56.564Z,98159.53
2023-01-08T00:10:59.155Z,98161.19
2023-01-08T00:13:00.872Z,98152.47
2023-01-08T00:15:06.669Z,98145.38
2023-01-08T00:17:08.608Z,98141.03
2023-01-08T00:19:14.633Z,98138.31
2023-01-08T00:21:16.369Z,98135.81
2023-01-08T00:23:21.504Z,98135.00
2023-01-08T00:25:27.707Z,98135.25
2023-01-08T00:27:29.292Z,98138.81
2023-01-08T00:29:31.234Z,98135.53
2023-01-08T00:31:34.783Z,98136.59
2023-01-08T00:33:36.988Z,98126.78
2023-01-08T00:35:39.364Z,98133.31
2023-01-08T00:37:40.848Z,98136.53
2023-01-08T00:39:42.420Z,98136.53
2023-01-08T00:41:50.263Z,98144.13
2023-01-08T00:43:51.843Z,98143.28
2023-01-08T00:45:54.035Z,98135.41
2023-01-08T00:47:58.581Z,98128.31
2023-01-08T00:50:00.583Z,98122.88
2023-01-08T00:52:02.268Z,98114.16
2023-01-08T00:54:03.953Z,98115.22
2023-01-08T00:56:10.891Z,98115.22
2023-01-08T00:58:13.063Z,98114.38
2023-01-08T01:00:16.385Z,98114.38
2023-01-08T01:02:18.021Z,98116.31
2023-01-08T01:04:20.271Z,98113.00
2023-01-08T01:06:21.938Z,98112.19
2023-01-08T01:08:23.378Z,98108.66
2023-01-08T01:10:25.136Z,98110.53
2023-01-08T01:12:26.842Z,98107.00
2023-01-08T01:14:28.485Z,98105.59
2023-01-08T01:16:29.993Z,98124.63
2023-01-08T01:18:32.135Z,98112.94
2023-01-08T01:20:33.860Z,98115.66
2023-01-08T01:22:36.459Z,98105.59
2023-01-08T01:24:38.244Z,98108.59
2023-01-08T01:26:40.857Z,98106.94
2023-01-08T01:28:42.418Z,98105.88
2023-01-08T01:30:43.930Z,98101.50
2023-01-08T01:32:45.526Z,98105.31
2023-01-08T01:34:47.210Z,98106.94
2023-01-08T01:36:48.791Z,98106.94
2023-01-08T01:38:51.961Z,98102.59
2023-01-08T01:40:53.501Z,98104.47
2023-01-08T01:42:55.096Z,98096.31
2023-01-08T01:44:56.826Z,98099.03
2023-01-08T01:47:01.438Z,98107.44
2023-01-08T01:49:12.201Z,98110.75
2023-01-08T01:51:16.305Z,98091.94
2023-01-08T01:53:31.824Z,98088.41
2023-01-08T01:55:38.053Z,98087.34
2023-01-08T01:57:42.143Z,98067.47
2023-01-08T01:59:45.991Z,98066.41
2023-01-08T02:01:47.913Z,98076.47
2023-01-08T02:03:52.608Z,98083.56
2023-01-08T02:06:26.797Z,98078.13
2023-01-08T02:08:37.385Z,98078.63
2023-01-08T02:11:06.679Z,98069.13
2023-01-08T02:13:14.511Z,98060.16
2023-01-08T02:15:41.374Z,98056.94
2023-01-08T02:18:07.845Z,98064.25
2023-01-08T02:20:21.885Z,98062.94
2023-01-08T02:22:44.524Z,98063.50
2023-01-08T02:25:01.550Z,98068.09
2023-01-08T02:27:06.767Z,98081.19
2023-01-08T02:29:18.873Z,98070.09
2023-01-08T02:31:31.825Z,98061.38
2023-01-08T02:33:33.793Z,98059.50
2023-01-08T02:36:16.174Z,98055.44
2023-01-08T02:38:18.450Z,98051.41
2023-01-08T02:40:29.587Z,98029.66
2023-01-08T02:42:42.843Z,98032.94
2023-01-08T02:45:06.854Z,98051.72
2023-01-08T02:47:13.761Z,98047.13
2023-01-08T02:49:16.870Z,98057.47
2023-01-08T02:51:48.849Z,98049.28
2023-01-08T02:53:55.022Z,98048.22
2023-01-08T02:56:03.112Z,98050.94
2023-01-08T02:58:05.846Z,98047.16
2023-01-08T03:00:08.593Z,98044.19
2023-01-08T03:02:11.357Z,98040.41
2023-01-08T03:04:20.062Z,98031.97
2023-01-08T03:06:21.831Z,98047.22
2023-01-08T03:08:24.402Z,98049.66
2023-01-08T03:10:30.188Z,98053.22
2023-01-08T03:12:40.541Z,98037.72
2023-01-08T03:15:09.921Z,98042.06
2023-01-08T03:17:24.092Z,98023.03
2023-01-08T03:19:31.490Z,98015.97
2023-01-08T03:21:35.621Z,98011.31
2023-01-08T03:23:40.021Z,98005.88
2023-01-08T03:25:46.038Z,98014.63
2023-01-08T03:27:52.336Z,98015.69
2023-01-08T03:29:58.619Z,98014.88
2023-01-08T03:32:05.019Z,98010.00
2023-01-08T03:34:07.702Z,98005.66
2023-01-08T03:36:14.110Z,98001.81
2023-01-08T03:38:25.713Z,97991.22
2023-01-08T03:40:34.983Z,97992.88
2023-01-08T03:42:36.728Z,97975.72
2023-01-08T03:44:38.616Z,97966.47
2023-01-08T03:46:44.809Z,97973.00
2023-01-08T03:48:46.994Z,97963.19
2023-01-08T03:50:49.287Z,97967.81
2023-01-08T03:52:53.131Z,97957.25
2023-01-08T03:54:55.690Z,97958.06
2023-01-08T03:56:57.451Z,97958.06
2023-01-08T03:58:58.917Z,97969.78
2023-01-08T04:01:00.994Z,97985.81
2023-01-08T04:03:05.682Z,97981.44
2023-01-08T04:05:13.807Z,97976.84
2023-01-08T04:07:15.281Z,97973.06
2023-01-08T04:09:16.903Z,97964.88
2023-01-08T04:11:28.192Z,97952.13
2023-01-08T04:13:32.719Z,97951.53
2023-01-08T04:15:34.769Z,97961.06
2023-01-08T04:17:36.351Z,97961.06
2023-01-08T04:19:37.958Z,97954.25
2023-01-08T04:21:39.847Z,97965.13
2023-01-08T04:23:41.321Z,97959.44
2023-01-08T04:25:43.090Z,97971.94
2023-01-08T04:27:44.703Z,97966.50
2023-01-08T04:29:46.205Z,97963.78
2023-01-08T04:31:50.170Z,97963.78
2023-01-08T04:33:51.782Z,97959.19
2023-01-08T04:35:53.410Z,97958.09
2023-01-08T04:37:54.989Z,97955.13
2023-01-08T04:39:56.603Z,97955.13
2023-01-08T04:41:58.211Z,97944.22
2023-01-08T04:43:59.804Z,97945.34
2023-01-08T04:46:07.767Z,97950.19
2023-01-08T04:48:11.214Z,97949.69
2023-01-08T04:50:12.858Z,97949.69
2023-01-08T04:52:14.312Z,97941.50
2023-01-08T04:54:15.860Z,97941.50
2023-01-08T04:56:29.085Z,97936.91
2023-01-08T04:58:31.061Z,97934.44
2023-01-08T05:00:32.831Z,97937.41
2023-01-08T05:02:34.660Z,97930.91
2023-01-08T05:04:36.330Z,97934.69
2023-01-08T05:06:38.082Z,97921.91
2023-01-08T05:08:42.358Z,97908.88
2023-01-08T05:10:43.946Z,97906.41
2023-01-08T05:12:45.568Z,97907.50
2023-01-08T05:14:47.256Z,97907.50
2023-01-08T05:16:48.849Z,97900.97
2023-01-08T05:18:50.449Z,97902.34
2023-01-08T05:20:52.035Z,97907.81
2023-01-08T05:22:53.657Z,97906.69
2023-01-08T05:24:55.113Z,97902.09
2023-01-08T05:26:56.897Z,97890.38
2023-01-08T05:29:01.227Z,97902.09
2023-01-08T05:31:03.131Z,97907.25
2023-01-08T05:33:04.692Z,97906.41
2023-01-08T05:35:06.519Z,97904.75
2023-01-08T05:37:08.170Z,97918.94
2023-01-08T05:42:53.594Z,97902.88
2023-01-08T05:44:55.518Z,97908.31
2023-01-08T05:46:59.914Z,97903.94
2023-01-08T05:49:25.899Z,97914.81
2023-01-08T05:51:45.246Z,97901.81
2023-01-08T05:53:49.701Z,97896.38
2023-01-08T05:55:51.269Z,97892.53
2023-01-08T05:57:52.766Z,97887.94
2023-01-08T05:59:54.221Z,97888.75
2023-01-08T06:01:55.913Z,97881.66
2023-01-08T06:03:59.019Z,97871.59
2023-01-08T06:06:06.030Z,97872.16
2023-01-08T06:08:10.482Z,97875.72
2023-01-08T06:10:11.934Z,97878.44
2023-01-08T06:12:13.610Z,97873.00
2023-01-08T06:14:16.611Z,97877.34
2023-01-08T06:16:21.238Z,97884.41
2023-01-08T06:18:22.764Z,97878.97
2023-01-08T06:20:24.316Z,97876.25
2023-01-08T06:22:26.608Z,97876.81
2023-01-08T06:24:28.273Z,97869.75
2023-01-08T06:26:30.029Z,97876.81
2023-01-08T06:28:32.737Z,97878.75
2023-01-08T06:30:34.691Z,97876.81
2023-01-08T06:32:36.464Z,97873.28
2023-01-08T06:34:37.981Z,97878.75
2023-01-08T06:36:39.725Z,97883.91
2023-01-08T06:38:41.278Z,97880.13
2023-01-08T06:40:42.958Z,97877.63
2023-01-08T06:42:47.607Z,97873.28
2023-01-08T06:44:49.199Z,97880.13
2023-01-08T06:46:51.346Z,97872.75
2023-01-08T06:48:53.221Z,97881.75
2023-01-08T06:50:56.320Z,97886.94
2023-01-08T06:52:57.997Z,97865.97
2023-01-08T06:54:59.700Z,97871.41
2023-01-08T06:57:04.138Z,97872.50
2023-01-08T06:59:05.857Z,97882.28
2023-01-08T07:01:07.521Z,97877.66
2023-01-08T07:03:11.686Z,97881.22
2023-01-08T07:05:13.469Z,97890.44
2023-01-08T07:07:17.748Z,97886.66
2023-01-08T07:09:22.036Z,97899.19
2023-01-08T07:11:25.699Z,97884.50
2023-01-08T07:13:30.045Z,97884.50
2023-01-08T07:15:36.203Z,97889.94
2023-01-08T07:17:37.834Z,97885.31
2023-01-08T07:19:41.933Z,97884.50
2023-01-08T07:21:43.643Z,97886.97
2023-01-08T07:23:49.269Z,97888.88
2023-01-08T07:25:53.457Z,97889.94
2023-01-08T07:27:55.108Z,97898.09
2023-01-08T07:29:56.779Z,97897.03
2023-01-08T07:32:05.676Z,97897.03
2023-01-08T07:34:07.530Z,97904.09
2023-01-08T07:36:09.460Z,97896.19
2023-01-08T07:38:11.073Z,97886.97
2023-01-08T07:40:16.146Z,97891.31
2023-01-08T07:42:17.926Z,97883.97
2023-01-08T07:44:21.261Z,97894.88
2023-01-08T07:46:23.061Z,97888.59
2023-01-08T07:48:27.294Z,97895.94
2023-01-08T07:50:29.083Z,97911.19
2023-01-08T07:52:30.694Z,97908.75
2023-01-08T07:54:32.369Z,97916.06
2023-01-08T07:56:34.094Z,97905.19
2023-01-08T07:58:35.915Z,97913.34
2023-01-08T08:00:37.766Z,97906.03
2023-01-08T08:02:39.488Z,97898.66
2023-01-08T08:04:44.432Z,97906.81
2023-01-08T08:06:47.667Z,97906.81
2023-01-08T08:08:51.546Z,97916.06
2023-01-08T08:10:53.131Z,97916.63
2023-01-08T08:12:54.811Z,97905.75
2023-01-08T08:14:56.345Z,97909.28
2023-01-08T08:16:57.935Z,97910.38
2023-01-08T08:19:02.557Z,97906.81
2023-01-08T08:21:04.396Z,97916.63
2023-01-08T08:23:13.962Z,97909.03
2023-01-08T08:25:15.616Z,97904.41
2023-01-08T08:27:24.794Z,97894.34
2023-01-08T08:29:29.017Z,97897.88
2023-01-08T08:31:30.776Z,97898.69
2023-01-08T08:33:32.496Z,97890.28
2023-01-08T08:35:34.818Z,97878.56
2023-01-08T08:37:36.632Z,97862.78
2023-01-08T08:39:41.394Z,97882.13
2023-01-08T08:41:43.015Z,97899.28
2023-01-08T08:43:44.943Z,97873.66
2023-01-08T08:45:46.497Z,97874.22
2023-01-08T08:47:48.188Z,97860.63
2023-01-08T08:49:50.883Z,97860.38
2023-01-08T08:51:53.413Z,97866.63
2023-01-08T08:53:58.013Z,97860.91
2023-01-08T08:56:02.743Z,97854.66
2023-01-08T08:58:16.782Z,97863.66
2023-01-08T09:00:18.677Z,97874.25
2023-01-08T09:02:23.328Z,97874.00
2023-01-08T09:04:25.130Z,97883.56
2023-01-08T09:06:27.754Z,97893.91
2023-01-08T09:08:29.599Z,97873.22
2023-01-08T09:10:31.237Z,97883.59
2023-01-08T09:12:32.797Z,97879.75
2023-01-08T09:14:34.442Z,97871.63
2023-01-08T09:16:37.135Z,97867.28
2023-01-08T09:18:38.765Z,97869.47
2023-01-08T09:20:40.391Z,97855.31
2023-01-08T09:22:49.367Z,97859.41
2023-01-08T09:24:51.097Z,97869.81
2023-01-08T09:26:54.278Z,97865.50
2023-01-08T09:28:59.423Z,97864.38
2023-01-08T09:31:02.528Z,97866.31
2023-01-08T09:33:05.330Z,97867.97
2023-01-08T09:35:07.406Z,97866.59
2023-01-08T09:37:08.958Z,97863.66
2023-01-08T09:39:10.774Z,97866.94
2023-01-08T09:41:20.469Z,97867.47
2023-01-08T09:43:24.862Z,97868.84
2023-01-08T09:45:35.622Z,97862.88
2023-01-08T09:47:42.713Z,97866.97
2023-01-08T09:49:46.004Z,97866.16
2023-01-08T09:51:47.799Z,97864.81
2023-01-08T09:53:55.508Z,97861.81
2023-01-08T09:56:11.003Z,97850.13
2023-01-08T09:58:44.807Z,97856.13
2023-01-08T10:00:46.717Z,97852.03
2023-01-08T10:02:48.929Z,97857.75
2023-01-08T10:04:56.353Z,97858.31
2023-01-08T10:07:11.522Z,97853.97
2023-01-08T10:09:14.720Z,97852.59
2023-01-08T10:11:17.573Z,97844.97
2023-01-08T10:13:22.340Z,97843.88
2023-01-08T10:15:24.450Z,97839.81
2023-01-08T10:17:38.072Z,97834.91
2023-01-08T10:19:41.722Z,97832.47
2023-01-08T10:29:22.756Z,97817.47
2023-01-08T10:31:26.576Z,97819.91
2023-01-08T10:33:45.148Z,97812.28
2023-01-08T10:35:57.981Z,97814.75
2023-01-08T10:37:59.568Z,97815.28
2023-01-08T10:40:23.616Z,97810.66
2023-01-08T10:42:25.650Z,97806.81
2023-01-08T10:44:27.259Z,97800.00
2023-01-08T10:46:32.798Z,97809.03
2023-01-08T10:48:40.664Z,97797.81
2023-01-08T10:50:43.495Z,97789.09
2023-01-08T10:52:53.712Z,97793.47
2023-01-08T10:54:56.098Z,97800.28
2023-01-08T10:56:58.314Z,97794.03
2023-01-08T10:58:59.857Z,97798.94
2023-01-08T11:01:24.472Z,97785.84
2023-01-08T11:03:32.974Z,97785.00
2023-01-08T11:05:36.313Z,97783.94
2023-01-08T11:07:40.166Z,97775.22
2023-01-08T11:09:48.674Z,97779.84
2023-01-08T11:11:53.329Z,97773.28
2023-01-08T11:14:19.790Z,97780.91
2023-01-08T11:16:26.308Z,97783.66
2023-01-08T11:18:28.966Z,97785.28
2023-01-08T11:20:31.412Z,97783.94
2023-01-08T11:22:33.216Z,97774.63
2023-01-08T11:24:37.404Z,97782.56
2023-01-08T11:26:40.838Z,97776.81
2023-01-08T11:28:56.109Z,97777.66
2023-01-08T11:31:09.354Z,97773.25
2023-01-08T11:33:21.175Z,97772.19
2023-01-08T11:35:33.776Z,97777.09
2023-01-08T11:37:41.456Z,97771.66
2023-01-08T11:39:43.081Z,97767.00
2023-01-08T11:42:09.633Z,97765.91
2023-01-08T11:44:42.839Z,97764.00
2023-01-08T11:47:23.684Z,97761.28
2023-01-08T11:49:44.279Z,97761.28
2023-01-08T11:52:04.312Z,97743.81
2023-01-08T11:54:19.710Z,97745.72
2023-01-08T11:56:33.517Z,97744.91
2023-01-08T11:58:44.095Z,97738.06
2023-01-08T12:01:07.031Z,97740.81
2023-01-08T12:03:25.254Z,97731.25
2023-01-08T12:05:51.924Z,97732.91
2023-01-08T12:08:08.251Z,97727.44
2023-01-08T12:10:24.184Z,97727.97
2023-01-08T12:12:58.895Z,97715.16
2023-01-08T12:15:19.036Z,97716.25
2023-01-08T12:17:38.729Z,97715.94
2023-01-08T12:19:54.645Z,97712.13
2023-01-08T12:22:14.672Z,97703.66
2023-01-08T12:24:16.630Z,97705.31
2023-01-08T12:26:26.072Z,97705.00
2023-01-08T12:28:50.007Z,97697.66
2023-01-08T12:31:10.508Z,97700.91
2023-01-08T12:33:21.173Z,97706.13
2023-01-08T12:35:32.131Z,97703.38
2023-01-08T12:37:54.442Z,97696.81
2023-01-08T12:40:07.643Z,97702.00
2023-01-08T12:42:14.508Z,97696.25
2023-01-08T12:44:24.108Z,97696.78
2023-01-08T12:46:28.439Z,97691.06
2023-01-08T12:48:33.538Z,97683.72
2023-01-08T12:50:50.738Z,97680.69
2023-01-08T12:53:17.232Z,97676.06
2023-01-08T12:55:45.262Z,97676.06
2023-01-08T12:58:02.727Z,97682.34
2023-01-08T13:00:17.761Z,97672.25
2023-01-08T13:02:52.569Z,97679.31
2023-01-08T13:05:03.457Z,97677.13
2023-01-08T13:07:05.819Z,97671.66
2023-01-08T13:09:07.419Z,97671.41
2023-01-08T13:11:11.815Z,97665.66
2023-01-08T13:13:31.760Z,97671.13
2023-01-08T13:15:34.648Z,97670.59
2023-01-08T13:17:37.955Z,97668.38
2023-01-08T13:19:43.518Z,97663.22
2023-01-08T13:21:53.128Z,97661.84
2023-01-08T13:24:01.392Z,97660.72
2023-01-08T13:26:05.555Z,97660.72
2023-01-08T13:28:29.737Z,97656.09
2023-01-08T13:30:38.300Z,97646.53
2023-01-08T13:32:47.984Z,97645.16
2023-01-08T13:35:22.901Z,97649.53
2023-01-08T13:37:28.064Z,97641.84
2023-01-08T13:39:48.183Z,97646.50
2023-01-08T13:42:17.785Z,97639.41
2023-01-08T13:44:26.540Z,97637.47
2023-01-08T13:46:29.106Z,97629.00
2023-01-08T13:48:35.271Z,97629.53
2023-01-08T13:50:38.431Z,97636.03
2023-01-08T13:52:48.167Z,97635.78
2023-01-08T13:54:49.735Z,97636.59
2023-01-08T13:57:09.352Z,97634.41
2023-01-08T13:59:37.953Z,97642.59
2023-01-08T14:01:40.113Z,97630.00
2023-01-08T14:03:54.023Z,97628.38
2023-01-08T14:06:17.310Z,97633.53
2023-01-08T14:08:24.162Z,97612.53
2023-01-08T14:10:28.295Z,97624.78
2023-01-08T14:12:30.485Z,97620.94
2023-01-08T14:14:32.238Z,97622.59
2023-01-08T14:16:38.681Z,97618.78
2023-01-08T14:18:45.107Z,97629.69
2023-01-08T14:20:50.324Z,97633.50
2023-01-08T14:22:52.054Z,97625.03
2023-01-08T14:24:56.568Z,97628.31
2023-01-08T14:27:00.657Z,97622.03
2023-01-08T14:29:12.103Z,97614.66
2023-01-08T14:31:22.090Z,97614.34
2023-01-08T14:33:34.418Z,97619.00
2023-01-08T14:35:36.180Z,97613.28
2023-01-08T14:37:41.866Z,97612.44
2023-01-08T14:39:45.679Z,97612.16
2023-01-08T14:42:07.655Z,97608.59
2023-01-08T14:44:13.547Z,97606.16
2023-01-08T14:46:32.775Z,97605.34
2023-01-08T14:48:44.221Z,97602.91
2023-01-08T14:51:00.473Z,97611.94
2023-01-08T14:53:20.031Z,97599.66
2023-01-08T14:55:22.386Z,97604.00
2023-01-08T14:57:26.661Z,97601.25
2023-01-08T14:59:33.933Z,97599.34
2023-01-08T15:01:36.825Z,97609.75
2023-01-08T15:03:42.700Z,97613.56
2023-01-08T15:05:54.360Z,97609.47
2023-01-08T15:08:02.449Z,97596.91
2023-01-08T15:10:23.131Z,97595.28
2023-01-08T15:12:32.444Z,97598.31
2023-01-08T15:14:37.025Z,97594.44
2023-01-08T15:16:42.507Z,97596.91
2023-01-08T15:19:07.598Z,97590.09
2023-01-08T15:21:09.939Z,97588.16
2023-01-08T15:23:27.247Z,97592.28
2023-01-08T15:25:30.396Z,97587.13
2023-01-08T15:27:34.335Z,97589.56
2023-01-08T15:29:40.014Z,97596.13
2023-01-08T15:31:42.918Z,97595.31
2023-01-08T15:33:44.777Z,97589.31
2023-01-08T15:35:47.336Z,97586.28
2023-01-08T15:37:49.035Z,97579.78
2023-01-08T15:39:50.931Z,97576.75
2023-01-08T15:42:12.685Z,97579.78
2023-01-08T15:44:14.373Z,97575.41
2023-01-08T15:46:16.213Z,97576.53
2023-01-08T15:48:18.000Z,97568.34
2023-01-08T15:50:20.627Z,97575.97
2023-01-08T15:52:30.134Z,97584.16
2023-01-08T15:54:31.896Z,97569.16
2023-01-08T15:56:33.411Z,97564.81
2023-01-08T15:58:34.902Z,97555.81
2023-01-08T16:00:36.510Z,97551.72
2023-01-08T16:03:03.275Z,97547.66
2023-01-08T16:05:05.481Z,97551.19
2023-01-08T16:07:07.144Z,97559.66
2023-01-08T16:09:08.572Z,97554.50
2023-01-08T16:11:12.545Z,97549.03
2023-01-08T16:13:15.619Z,97555.31
2023-01-08T16:15:20.146Z,97568.44
2023-01-08T16:17:21.598Z,97566.78
2023-01-08T16:19:25.034Z,97556.16
2023-01-08T16:21:26.843Z,97544.69
2023-01-08T16:23:30.781Z,97528.59
2023-01-08T16:25:32.611Z,97526.97
2023-01-08T16:27:34.436Z,97533.53
2023-01-08T16:29:36.066Z,97519.88
2023-01-08T16:31:38.489Z,97511.97
2023-01-08T16:33:40.581Z,97503.25
2023-01-08T16:35:42.221Z,97505.97
2023-01-08T16:37:43.775Z,97506.81
2023-01-08T16:39:45.505Z,97519.06
2023-01-08T16:41:47.888Z,97522.09
2023-01-08T16:43:49.664Z,97525.91
2023-01-08T16:45:51.648Z,97513.34
2023-01-08T16:47:53.342Z,97513.94
2023-01-08T16:49:55.097Z,97517.75
2023-01-08T16:52:00.434Z,97519.66
2023-01-08T16:54:01.884Z,97520.75
2023-01-08T16:56:04.696Z,97513.69
2023-01-08T16:58:07.727Z,97509.03
2023-01-08T17:00:10.060Z,97506.59
2023-01-08T17:02:12.214Z,97504.66
2023-01-08T17:04:13.753Z,97494.84
2023-01-08T17:06:15.355Z,97490.50
2023-01-08T17:08:17.680Z,97492.41
2023-01-08T17:10:20.241Z,97493.50
2023-01-08T17:12:24.879Z,97493.50
2023-01-08T17:14:26.593Z,97470.06
2023-01-08T17:16:28.293Z,97463.78
2023-01-08T17:18:30.040Z,97465.69
2023-01-08T17:20:31.880Z,97462.13
2023-01-08T17:22:33.460Z,97467.59
2023-01-08T17:24:35.224Z,97458.63
2023-01-08T17:26:39.492Z,97449.88
2023-01-08T17:28:41.096Z,97452.34
2023-01-08T17:30:42.731Z,97446.34
2023-01-08T17:32:44.400Z,97445.53
2023-01-08T17:34:45.992Z,97445.00
2023-01-08T17:36:47.608Z,97443.88
2023-01-08T17:38:50.659Z,97436.00
2023-01-08T17:40:54.190Z,97436.81
2023-01-08T17:42:55.859Z,97445.00
2023-01-08T17:45:02.942Z,97444.19
2023-01-08T17:47:04.528Z,97433.25
2023-01-08T17:49:06.071Z,97429.72
2023-01-08T17:51:09.598Z,97434.09
2023-01-08T17:53:11.368Z,97424.25
2023-01-08T17:55:12.942Z,97427.81
2023-01-08T17:57:14.572Z,97419.88
2023-01-08T17:59:17.985Z,97420.72
2023-01-08T18:01:20.010Z,97415.25
2023-01-08T18:03:21.781Z,97412.81
2023-01-08T18:05:23.538Z,97421.00
2023-01-08T18:07:25.381Z,97416.13
2023-01-08T18:09:26.930Z,97418.03
2023-01-08T18:11:28.794Z,97409.31
2023-01-08T18:13:31.231Z,97418.31
2023-01-08T18:15:34.307Z,97410.97
2023-01-08T18:17:36.220Z,97401.94
2023-01-08T18:19:38.043Z,97404.94
2023-01-08T18:21:39.886Z,97391.31
2023-01-08T18:23:41.500Z,97391.31
2023-01-08T18:25:43.181Z,97386.66
2023-01-08T18:27:45.072Z,97367.88
2023-01-08T18:29:47.376Z,97361.59
2023-01-08T18:31:49.000Z,97363.50
2023-01-08T18:33:53.884Z,97349.34
2023-01-08T18:36:06.489Z,97349.63
2023-01-08T18:38:15.674Z,97361.34
2023-01-08T18:40:17.325Z,97360.81
2023-01-08T18:42:28.033Z,97360.81
2023-01-08T18:44:31.915Z,97364.91
2023-01-08T18:46:34.572Z,97376.66
2023-01-08T18:48:36.141Z,97376.66
2023-01-08T18:50:39.045Z,97376.66
2023-01-08T18:52:41.986Z,97375.00
2023-01-08T18:54:43.542Z,97368.75
2023-01-08T18:56:47.954Z,97364.09
2023-01-08T18:58:55.452Z,97367.94
2023-01-08T19:01:03.956Z,97369.03
2023-01-08T19:03:08.799Z,97371.50
2023-01-08T19:05:10.600Z,97374.22
2023-01-08T19:07:12.253Z,97371.75
2023-01-08T19:09:15.618Z,97367.13
2023-01-08T19:11:17.567Z,97359.81
2023-01-08T19:13:19.221Z,97366.88
2023-01-08T19:15:23.627Z,97359.50
2023-01-08T19:17:25.719Z,97352.16
2023-01-08T19:19:28.671Z,97347.50
2023-01-08T19:21:30.398Z,97332.53
2023-01-08T19:23:32.147Z,97320.78
2023-01-08T19:25:36.601Z,97321.31
2023-01-08T19:27:40.556Z,97303.34
2023-01-08T19:29:42.047Z,97297.06
2023-01-08T19:31:46.823Z,97293.78
2023-01-08T19:33:48.446Z,97295.69
2023-01-08T19:35:50.571Z,97314.78
2023-01-08T19:37:52.513Z,97304.69
2023-01-08T19:40:03.344Z,97308.50
2023-01-08T19:42:23.936Z,97313.66
2023-01-08T19:44:26.081Z,97318.59
2023-01-08T19:46:28.682Z,97303.88
2023-01-08T19:48:30.460Z,97312.06
2023-01-08T19:50:39.124Z,97300.84
2023-01-08T19:52:45.960Z,97310.94
2023-01-08T19:54:47.699Z,97304.69
2023-01-08T19:56:58.361Z,97304.69
2023-01-08T19:59:00.157Z,97303.56
2023-01-08T20:01:11.367Z,97299.25
2023-01-08T20:03:13.086Z,97305.47
2023-01-08T20:05:15.229Z,97303.88
2023-01-08T20:07:16.923Z,97307.13
2023-01-08T20:09:18.603Z,97308.22
2023-01-08T20:11:22.453Z,97307.41
2023-01-08T20:13:24.087Z,97303.06
2023-01-08T20:15:25.647Z,97295.69
2023-01-08T20:17:27.359Z,97304.69
2023-01-08T20:19:32.815Z,97285.88
2023-01-08T20:21:34.675Z,97290.50
2023-01-08T20:23:37.004Z,97277.16
2023-01-08T20:25:38.411Z,97280.72
2023-01-08T20:27:40.874Z,97275.00
2023-01-08T20:29:42.499Z,97276.13
2023-01-08T20:31:49.385Z,97269.84
2023-01-08T20:33:51.099Z,97263.88
2023-01-08T20:35:52.667Z,97261.16
2023-01-08T20:37:54.475Z,97261.16
2023-01-08T20:39:56.122Z,97249.69
2023-01-08T20:42:04.336Z,97248.91
2023-01-08T20:44:06.979Z,97252.41
2023-01-08T20:46:10.412Z,97245.34
2023-01-08T20:48:12.205Z,97243.72
2023-01-08T20:50:19.937Z,97242.88
2023-01-08T20:52:25.012Z,97234.72
2023-01-08T20:54:29.805Z,97240.16
2023-01-08T20:56:31.515Z,97232.81
2023-01-08T20:58:41.486Z,97229.25
2023-01-08T21:00:46.207Z,97232.28
2023-01-08T21:02:48.012Z,97227.91
2023-01-08T21:04:51.847Z,97232.56
2023-01-08T21:06:53.816Z,97218.13
2023-01-08T21:08:58.167Z,97217.00
2023-01-08T21:11:07.112Z,97226.31
2023-01-08T21:13:09.780Z,97218.41
2023-01-08T21:15:12.473Z,97217.59
2023-01-08T21:17:14.083Z,97221.41
2023-01-08T21:19:15.810Z,97215.16
2023-01-08T21:21:19.976Z,97208.88
2023-01-08T21:23:22.908Z,97208.88
2023-01-08T21:25:24.582Z,97203.41
2023-01-08T21:27:27.917Z,97206.97
2023-01-08T21:29:29.712Z,97205.88
2023-01-08T21:31:31.633Z,97204.75
2023-01-08T21:33:40.694Z,97206.97
2023-01-08T21:35:42.349Z,97203.41
2023-01-08T21:37:43.901Z,97207.78
2023-01-08T21:39:46.910Z,97198.78
2023-01-08T21:42:06.988Z,97187.88
2023-01-08T21:44:46.146Z,97183.56
2023-01-08T21:46:47.906Z,97176.16
2023-01-08T21:48:52.300Z,97172.66
2023-01-08T21:50:53.952Z,97169.09
2023-01-08T21:53:14.001Z,97167.72
2023-01-08T21:55:17.371Z,97162.53
2023-01-08T21:57:22.084Z,97160.91
2023-01-08T21:59:23.661Z,97159.00
2023-01-08T22:01:26.413Z,97150.00
2023-01-08T22:03:28.132Z,97144.03
2023-01-08T22:05:29.847Z,97140.19
2023-01-08T22:07:32.137Z,97139.13
2023-01-08T22:09:36.473Z,97129.28
2023-01-08T22:11:38.215Z,97127.97
2023-01-08T22:13:42.880Z,97123.31
2023-01-08T22:15:44.431Z,97130.69
2023-01-08T22:17:46.260Z,97120.59
2023-01-08T22:19:47.734Z,97112.41
2023-01-08T22:21:52.029Z,97112.16
2023-01-08T22:23:55.673Z,97114.63
2023-01-08T22:25:57.520Z,97110.25
2023-01-08T22:27:59.191Z,97108.66
2023-01-08T22:30:00.940Z,97106.19
2023-01-08T22:32:02.663Z,97104.28
2023-01-08T22:34:04.205Z,97099.16
2023-01-08T22:36:11.689Z,97101.63
2023-01-08T22:38:13.253Z,97100.53
2023-01-08T22:40:14.782Z,97098.91
2023-01-08T22:42:16.817Z,97107.63
2023-01-08T22:44:18.532Z,97101.38
2023-01-08T22:46:20.095Z,97097.31
2023-01-08T22:48:22.379Z,97092.16
2023-01-08T22:50:25.969Z,97088.91
2023-01-08T22:52:27.514Z,97079.41
2023-01-08T22:54:29.268Z,97081.00
2023-01-08T22:56:30.900Z,97078.88
2023-01-08T22:58:32.445Z,97071.28
2023-01-08T23:00:34.755Z,97075.09
2023-01-08T23:02:37.470Z,97075.66
2023-01-08T23:04:39.066Z,97065.06
2023-01-08T23:06:43.040Z,97061.25
2023-01-08T23:08:45.682Z,97056.66
2023-01-08T23:10:47.183Z,97058.84
2023-01-08T23:12:50.684Z,97043.06
2023-01-08T23:14:52.505Z,97047.47
2023-01-08T23:16:54.189Z,97046.97
2023-01-08T23:18:59.620Z,97050.78
2023-01-08T23:21:14.604Z,97050.25
2023-01-08T23:23:16.698Z,97050.81
2023-01-08T23:25:21.405Z,97049.22
2023-01-08T23:27:22.931Z,97038.59
2023-01-08T23:29:32.114Z,97040.28
2023-01-08T23:31:37.686Z,97033.50
2023-01-08T23:33:39.844Z,97034.06
2023-01-08T23:35:44.133Z,97034.63
2023-01-08T23:37:45.630Z,97026.47
2023-01-08T23:39:47.233Z,97031.09
2023-01-08T23:41:48.916Z,97030.88
2023-01-08T23:43:50.507Z,97028.41
2023-01-08T23:45:53.052Z,97037.69
2023-01-08T23:47:54.607Z,97034.41
2023-01-08T23:49:57.401Z,97033.03
2023-01-08T23:51:59.011Z,97027.59
2023-01-08T23:54:00.799Z,97031.44
2023-01-08T23:56:04.588Z,97030.91
2023-01-08T23:58:06.045Z,97025.72
